Time;durP1;ratioP1;P1;durP2;ratioP2;P2;SDS_P1;SDS_P2;PMS_P1;PMS_P2;Temp;Humidity;BMP_temperature;BMP_pressure;BME280_temperature;BME280_humidity;BME280_pressure;Samples;Min_cycle;Max_cycle;Signal;HPM_P1;HPM_P2
2024/03/21 00:02:05;;;;;;;20.70;9.00;;;;;;;7.13;100.00;101146.08;105410;1255;61015;-75
2024/03/21 00:04:32;;;;;;;18.90;9.10;;;;;;;7.10;100.00;101146.73;105484;1261;60538;-74
2024/03/21 00:07:03;;;;;;;16.70;10.10;;;;;;;7.07;100.00;101145.42;105420;1261;72366;-74
2024/03/21 00:09:30;;;;;;;15.50;8.70;;;;;;;7.05;100.00;101148.27;105340;1258;61925;-72
2024/03/21 00:11:58;;;;;;;16.40;8.50;;;;;;;7.06;100.00;101148.96;105437;1260;72609;-76
2024/03/21 00:14:26;;;;;;;25.30;8.70;;;;;;;7.06;100.00;101149.48;105347;1257;60623;-74
2024/03/21 00:16:53;;;;;;;12.60;8.60;;;;;;;7.07;100.00;101151.70;105917;1257;60383;-74
2024/03/21 00:19:20;;;;;;;16.80;8.40;;;;;;;7.08;100.00;101149.04;105917;1257;72773;-72
2024/03/21 00:21:48;;;;;;;17.60;8.70;;;;;;;7.09;100.00;101151.09;105867;1251;62523;-74
2024/03/21 00:24:16;;;;;;;20.10;9.40;;;;;;;7.09;100.00;101149.91;105849;1253;72281;-73
2024/03/21 00:26:44;;;;;;;20.30;10.00;;;;;;;7.04;100.00;101147.63;105801;1251;60549;-74
2024/03/21 00:29:11;;;;;;;18.00;9.40;;;;;;;7.00;100.00;101151.79;105829;1256;60527;-73
2024/03/21 00:31:39;;;;;;;28.20;11.90;;;;;;;6.97;100.00;101153.10;105791;1251;73906;-72
2024/03/21 00:34:08;;;;;;;24.20;10.10;;;;;;;6.93;100.00;101149.27;105748;1257;63572;-75
2024/03/21 00:36:36;;;;;;;23.80;11.70;;;;;;;6.88;100.00;101154.82;105679;1251;74157;-73
2024/03/21 00:39:03;;;;;;;26.80;11.60;;;;;;;6.83;100.00;101152.91;105737;1256;60533;-72
2024/03/21 00:41:30;;;;;;;30.40;11.90;;;;;;;6.79;100.00;101152.71;105804;1251;60508;-75
2024/03/21 00:43:58;;;;;;;26.70;12.30;;;;;;;6.77;100.00;101152.27;105854;1251;73894;-73
2024/03/21 00:46:26;;;;;;;23.80;12.30;;;;;;;6.75;100.00;101149.02;105846;1251;62687;-72
2024/03/21 00:48:53;;;;;;;28.40;12.10;;;;;;;6.75;100.00;101155.99;105713;1258;72896;-73
2024/03/21 00:51:21;;;;;;;21.20;11.80;;;;;;;6.72;100.00;101152.77;105682;1251;60500;-75
2024/03/21 00:53:48;;;;;;;32.40;12.00;;;;;;;6.72;100.00;101152.61;105970;1257;60408;-73
2024/03/21 00:56:16;;;;;;;25.20;11.30;;;;;;;6.69;100.00;101158.09;105693;1257;74334;-73
2024/03/21 00:58:43;;;;;;;22.10;12.20;;;;;;;6.68;100.00;101156.40;105731;1256;64223;-72
2024/03/21 01:01:12;;;;;;;26.50;11.40;;;;;;;6.69;100.00;101152.71;105748;1257;72683;-76
2024/03/21 01:03:40;;;;;;;29.50;12.80;;;;;;;6.69;100.00;101153.92;106504;1254;60521;-72
2024/03/21 01:06:07;;;;;;;28.20;11.70;;;;;;;6.68;100.00;101159.87;106777;1254;60002;-73
2024/03/21 01:08:34;;;;;;;24.00;12.40;;;;;;;6.69;100.00;101160.19;106023;1251;72597;-74
2024/03/21 01:11:01;;;;;;;24.60;12.50;;;;;;;6.65;100.00;101159.45;105807;1257;63633;-73
2024/03/21 01:13:29;;;;;;;22.90;13.80;;;;;;;6.60;100.00;101154.75;105766;1254;72796;-74
2024/03/21 01:15:56;;;;;;;27.90;14.90;;;;;;;6.57;100.00;101156.77;105830;1257;60501;-76
2024/03/21 01:18:34;;;;;;;35.30;14.30;;;;;;;6.55;100.00;101155.82;105799;1251;60530;-73
2024/03/21 01:21:02;;;;;;;29.40;15.40;;;;;;;6.52;100.00;101152.44;105775;1251;72904;-73
2024/03/21 01:23:30;;;;;;;29.30;17.10;;;;;;;6.48;100.00;101154.14;105892;1256;64591;-75
2024/03/21 01:25:58;;;;;;;37.90;15.70;;;;;;;6.46;100.00;101154.38;105834;1251;72683;-74
2024/03/21 01:28:25;;;;;;;29.50;15.50;;;;;;;6.43;100.00;101153.27;105860;1254;60863;-72
2024/03/21 01:30:53;;;;;;;34.60;14.60;;;;;;;6.40;100.00;101150.92;105811;1256;60431;-72
2024/03/21 01:33:20;;;;;;;34.50;16.00;;;;;;;6.40;100.00;101154.23;105784;1259;72657;-75
2024/03/21 01:35:48;;;;;;;22.50;14.20;;;;;;;6.38;100.00;101154.48;105972;1251;63649;-74
2024/03/21 01:38:15;;;;;;;24.00;13.50;;;;;;;6.37;100.00;101154.67;105716;1257;71385;-73
2024/03/21 01:40:42;;;;;;;20.20;13.60;;;;;;;6.33;100.00;101151.69;105907;1257;60527;-72
2024/03/21 01:43:27;;;;;;;26.90;13.40;;;;;;;6.32;100.00;101151.04;105789;1252;60659;-73
2024/03/21 01:46:09;;;;;;;24.10;14.40;;;;;;;6.32;100.00;101150.35;105694;1251;72570;-72
2024/03/21 01:48:37;;;;;;;27.10;15.00;;;;;;;6.33;100.00;101151.02;105778;1257;63782;-72
2024/03/21 01:51:04;;;;;;;27.00;14.40;;;;;;;6.32;100.00;101150.34;105769;1257;72481;-72
2024/03/21 01:53:32;;;;;;;36.30;17.90;;;;;;;6.31;100.00;101151.23;105755;1258;60533;-73
2024/03/21 01:56:00;;;;;;;36.10;17.70;;;;;;;6.31;100.00;101154.00;105823;1252;60559;-73
2024/03/21 01:58:27;;;;;;;27.40;15.20;;;;;;;6.30;100.00;101152.69;105781;1251;73788;-74
2024/03/21 02:00:54;;;;;;;28.30;14.70;;;;;;;6.26;100.00;101151.95;105748;1257;63588;-72
2024/03/21 02:03:21;;;;;;;28.30;14.50;;;;;;;6.20;100.00;101155.08;105777;1257;70688;-75
2024/03/21 02:05:49;;;;;;;35.50;16.80;;;;;;;6.14;100.00;101152.48;105882;1254;60360;-75
2024/03/21 02:08:16;;;;;;;26.30;14.90;;;;;;;6.13;100.00;101153.06;105946;1257;60421;-74
2024/03/21 02:10:44;;;;;;;25.80;14.30;;;;;;;6.14;100.00;101152.84;105783;1257;72916;-75
2024/03/21 02:13:12;;;;;;;34.40;15.00;;;;;;;6.15;100.00;101152.14;105796;1257;62308;-73
2024/03/21 02:15:40;;;;;;;23.30;14.40;;;;;;;6.13;100.00;101152.37;105833;1257;71328;-75
2024/03/21 02:18:07;;;;;;;24.50;14.30;;;;;;;6.10;100.00;101148.97;105878;1254;60460;-71
2024/03/21 02:20:35;;;;;;;28.10;15.00;;;;;;;6.09;100.00;101146.95;105901;1252;60578;-75
2024/03/21 02:23:02;;;;;;;24.40;13.50;;;;;;;6.08;100.00;101148.70;105815;1254;73752;-74
2024/03/21 02:25:29;;;;;;;25.30;14.70;;;;;;;6.06;100.00;101147.20;105899;1252;62146;-74
2024/03/21 02:27:56;;;;;;;21.20;14.30;;;;;;;6.03;100.00;101148.88;105646;1252;72672;-75
2024/03/21 02:30:24;;;;;;;27.70;14.60;;;;;;;5.98;100.00;101149.36;105709;1257;60532;-72
2024/03/21 02:32:51;;;;;;;23.50;14.10;;;;;;;5.95;100.00;101148.77;105824;1254;60756;-73
2024/03/21 02:35:19;;;;;;;21.90;12.60;;;;;;;5.90;100.00;101151.86;105796;1255;73791;-73
2024/03/21 02:37:46;;;;;;;26.00;14.00;;;;;;;5.84;100.00;101149.44;105770;1256;64171;-73
2024/03/21 02:40:14;;;;;;;23.80;13.40;;;;;;;5.80;100.00;101150.08;105843;1257;72718;-76
2024/03/21 02:42:41;;;;;;;23.60;13.70;;;;;;;5.78;100.00;101154.48;105889;1256;60577;-73
2024/03/21 02:45:09;;;;;;;29.10;15.90;;;;;;;5.76;100.00;101156.48;105684;1256;60472;-73
2024/03/21 02:47:37;;;;;;;29.70;15.30;;;;;;;5.75;100.00;101156.66;105684;1252;73896;-74
2024/03/21 02:50:05;;;;;;;27.10;15.60;;;;;;;5.74;100.00;101164.85;105728;1255;62484;-74
2024/03/21 02:52:32;;;;;;;27.10;17.00;;;;;;;5.71;100.00;101165.63;105663;1254;72912;-75
2024/03/21 02:55:00;;;;;;;28.10;14.60;;;;;;;5.68;100.00;101168.67;105671;1254;60421;-74
2024/03/21 02:57:27;;;;;;;19.60;13.90;;;;;;;5.66;100.00;101169.63;105639;1257;60414;-74
2024/03/21 02:59:54;;;;;;;19.50;12.50;;;;;;;5.63;100.00;101170.08;105698;1254;74236;-74
2024/03/21 03:02:21;;;;;;;27.80;15.20;;;;;;;5.64;100.00;101174.00;105595;1254;62744;-75
2024/03/21 03:04:48;;;;;;;26.10;13.40;;;;;;;5.65;100.00;101177.27;105655;1257;71728;-74
2024/03/21 03:07:16;;;;;;;29.40;16.60;;;;;;;5.65;100.00;101175.20;105645;1256;60437;-73
2024/03/21 03:09:43;;;;;;;21.60;14.70;;;;;;;5.65;100.00;101175.72;105678;1251;60527;-73
2024/03/21 03:12:11;;;;;;;33.70;14.80;;;;;;;5.67;100.00;101178.24;105648;1256;72625;-73
2024/03/21 03:14:38;;;;;;;23.60;15.30;;;;;;;5.68;100.00;101177.52;105716;1256;63835;-73
2024/03/21 03:17:05;;;;;;;27.90;15.20;;;;;;;5.67;100.00;101179.48;105758;1256;72832;-73
2024/03/21 03:19:32;;;;;;;30.80;18.40;;;;;;;5.64;100.00;101180.44;105641;1254;61342;-72
2024/03/21 03:22:00;;;;;;;26.90;16.90;;;;;;;5.64;100.00;101184.08;105682;1256;61206;-73
2024/03/21 03:24:27;;;;;;;39.40;19.20;;;;;;;5.65;100.00;101186.48;105924;1256;74808;-74
2024/03/21 03:26:54;;;;;;;29.60;18.20;;;;;;;5.66;100.00;101187.66;105763;1253;64353;-73
2024/03/21 03:42:05;;;;;;;29.00;15.50;;;;;;;5.65;100.00;101204.00;102770;1292;601059;-74
2024/03/21 03:44:33;;;;;;;21.80;14.60;;;;;;;5.63;100.00;101205.60;104994;1264;59903;-71
2024/03/21 03:47:00;;;;;;;24.30;15.30;;;;;;;5.63;100.00;101209.25;104943;1266;60601;-73
2024/03/21 03:49:28;;;;;;;23.70;14.40;;;;;;;5.58;100.00;101209.89;105154;1263;73031;-72
2024/03/21 03:51:55;;;;;;;24.30;13.30;;;;;;;5.58;100.00;101215.46;105146;1263;64613;-73
2024/03/21 03:54:22;;;;;;;27.90;14.10;;;;;;;5.56;100.00;101215.35;105016;1263;71596;-74
2024/03/21 03:56:50;;;;;;;21.80;14.00;;;;;;;5.55;100.00;101218.67;105093;1260;200450;-74
2024/03/21 03:59:17;;;;;;;28.10;14.70;;;;;;;5.51;100.00;101218.44;105264;1261;59727;-74
2024/03/21 04:01:46;;;;;;;22.50;13.40;;;;;;;5.51;100.00;101218.09;105203;1265;72634;-74
2024/03/21 04:04:14;;;;;;;22.30;13.70;;;;;;;5.50;100.00;101221.41;106078;1260;62955;-73
2024/03/21 04:06:41;;;;;;;30.60;18.00;;;;;;;5.47;100.00;101223.61;105346;1260;73389;-73
2024/03/21 04:09:09;;;;;;;28.80;15.60;;;;;;;5.41;100.00;101222.90;105224;1259;60647;-74
2024/03/21 04:11:36;;;;;;;29.80;16.90;;;;;;;5.34;100.00;101226.05;105276;1258;60540;-76
2024/03/21 04:14:03;;;;;;;26.80;13.80;;;;;;;5.27;100.00;101226.41;105190;1260;73038;-74
2024/03/21 04:16:30;;;;;;;24.60;15.00;;;;;;;5.19;100.00;101226.64;105190;1260;63716;-73
2024/03/21 04:18:58;;;;;;;23.40;14.60;;;;;;;5.14;100.00;101227.82;105223;1265;72720;-73
2024/03/21 04:21:25;;;;;;;31.00;18.60;;;;;;;5.12;100.00;101232.20;105178;1260;60512;-72
2024/03/21 04:23:52;;;;;;;35.00;18.80;;;;;;;5.12;100.00;101231.67;105243;1259;60528;-74
2024/03/21 04:26:19;;;;;;;31.00;17.70;;;;;;;5.15;100.00;101229.34;105260;1265;71980;-74
2024/03/21 04:28:47;;;;;;;32.10;18.00;;;;;;;5.22;100.00;101235.58;105285;1260;62903;-76
2024/03/21 04:31:14;;;;;;;26.70;17.70;;;;;;;5.27;100.00;101235.77;105229;1259;72412;-74
2024/03/21 04:33:41;;;;;;;29.20;16.90;;;;;;;5.31;100.00;101236.70;105222;1260;61595;-72
2024/03/21 04:36:08;;;;;;;29.30;18.00;;;;;;;5.35;100.00;101240.95;105510;1259;60407;-74
2024/03/21 04:38:35;;;;;;;34.80;17.90;;;;;;;5.37;100.00;101240.34;105322;1255;73801;-73
2024/03/21 04:41:13;;;;;;;23.20;17.00;;;;;;;5.42;100.00;101240.04;105517;1256;63819;-75
2024/03/21 04:43:40;;;;;;;33.80;18.70;;;;;;;5.45;100.00;101242.05;105674;1259;71374;-75
2024/03/21 04:46:07;;;;;;;29.20;17.50;;;;;;;5.45;100.00;101240.12;105470;1259;60799;-75
2024/03/21 04:48:34;;;;;;;29.90;16.90;;;;;;;5.43;100.00;101241.94;105478;1257;60501;-74
2024/03/21 04:51:02;;;;;;;26.80;17.00;;;;;;;5.39;100.00;101246.00;105466;1255;73813;-75
2024/03/21 04:53:30;;;;;;;33.80;20.00;;;;;;;5.37;100.00;101245.02;105541;1254;62388;-76
2024/03/21 04:55:57;;;;;;;34.10;19.20;;;;;;;5.33;100.00;101245.49;105531;1259;72779;-75
2024/03/21 04:58:24;;;;;;;34.40;18.80;;;;;;;5.31;100.00;101248.14;105345;1260;60815;-75
2024/03/21 05:00:52;;;;;;;31.30;18.70;;;;;;;5.31;100.00;101251.10;105618;1259;60428;-74
2024/03/21 05:03:19;;;;;;;39.40;22.10;;;;;;;5.31;100.00;101251.78;105698;1259;72691;-76
2024/03/21 05:05:46;;;;;;;36.00;21.60;;;;;;;5.32;100.00;101254.69;105653;1258;62758;-74
2024/03/21 05:08:13;;;;;;;32.60;20.90;;;;;;;5.34;100.00;101251.89;105486;1260;72516;-75
2024/03/21 05:10:41;;;;;;;33.80;20.80;;;;;;;5.36;100.00;101253.56;105677;1254;60496;-74
2024/03/21 05:13:09;;;;;;;34.90;21.70;;;;;;;5.40;100.00;101255.70;105722;1253;60504;-74
2024/03/21 05:15:36;;;;;;;44.30;22.70;;;;;;;5.47;100.00;101258.29;105694;1259;73691;-73
2024/03/21 05:18:04;;;;;;;41.60;22.80;;;;;;;5.54;100.00;101257.20;105653;1256;63827;-74
2024/03/21 05:20:32;;;;;;;30.60;19.90;;;;;;;5.60;100.00;101259.64;105734;1256;72934;-72
2024/03/21 05:22:59;;;;;;;27.90;18.80;;;;;;;5.65;100.00;101267.83;105350;1262;61601;-74
2024/03/21 05:25:26;;;;;;;30.60;18.20;;;;;;;5.65;100.00;101264.19;105620;1259;60460;-72
2024/03/21 05:27:54;;;;;;;29.20;19.20;;;;;;;5.66;100.00;101275.94;105675;1259;74657;-73
2024/03/21 05:30:21;;;;;;;32.20;21.00;;;;;;;5.65;100.00;101273.05;105797;1253;62805;-73
2024/03/21 05:32:48;;;;;;;40.40;24.80;;;;;;;5.67;100.00;101277.99;105734;1258;71849;-73
2024/03/21 05:35:18;;;;;;;47.00;23.80;;;;;;;5.70;100.00;101276.70;105756;1256;60448;-73
2024/03/21 05:37:45;;;;;;;36.50;25.10;;;;;;;5.75;100.00;101279.16;105723;1259;60476;-75
2024/03/21 05:40:12;;;;;;;44.20;21.30;;;;;;;5.88;100.00;101279.99;105778;1259;72349;-74
2024/03/21 05:42:42;;;;;;;38.60;22.40;;;;;;;6.08;100.00;101279.92;105730;1260;62966;-73
2024/03/21 05:45:09;;;;;;;39.70;24.20;;;;;;;6.35;100.00;101283.27;105618;1259;71479;-75
2024/03/21 05:47:37;;;;;;;36.40;21.40;;;;;;;6.67;100.00;101287.80;105700;1259;60506;-74
2024/03/21 05:50:04;;;;;;;35.90;21.30;;;;;;;6.99;100.00;101288.80;105661;1254;60501;-74
2024/03/21 05:52:31;;;;;;;30.60;20.90;;;;;;;7.28;100.00;101297.86;105704;1254;72505;-74
2024/03/21 05:55:01;;;;;;;28.20;18.10;;;;;;;7.44;100.00;101298.17;105660;1254;63832;-73
2024/03/21 05:57:28;;;;;;;26.30;17.10;;;;;;;7.46;100.00;101302.09;105729;1260;71882;-75
2024/03/21 05:59:56;;;;;;;23.40;16.50;;;;;;;7.44;100.00;101303.91;105724;1258;60458;-74
2024/03/21 06:02:23;;;;;;;26.20;17.10;;;;;;;7.45;100.00;101308.42;105812;1259;60504;-75
2024/03/21 06:04:51;;;;;;;26.10;16.90;;;;;;;7.49;100.00;101304.61;105679;1254;74309;-74
2024/03/21 06:07:18;;;;;;;28.20;16.30;;;;;;;7.61;100.00;101305.05;105964;1254;62424;-75
2024/03/21 06:09:45;;;;;;;28.90;15.80;;;;;;;7.91;100.00;101305.69;105611;1259;72730;-72
2024/03/21 06:12:13;;;;;;;24.20;15.90;;;;;;;8.23;99.92;101305.82;105833;1257;60946;-75
2024/03/21 06:14:40;;;;;;;23.70;16.30;;;;;;;8.53;93.33;101311.65;105610;1255;60503;-77
2024/03/21 06:17:08;;;;;;;20.60;14.50;;;;;;;8.80;86.60;101317.37;105622;1259;72587;-75
2024/03/21 06:19:36;;;;;;;25.50;16.70;;;;;;;8.99;83.03;101316.54;105612;1255;63637;-75
2024/03/21 06:22:04;;;;;;;25.50;16.30;;;;;;;9.21;82.33;101315.98;105589;1259;71631;-75
2024/03/21 06:24:31;;;;;;;23.00;15.40;;;;;;;9.49;76.99;101322.27;105592;1255;60534;-75
2024/03/21 06:26:59;;;;;;;28.70;17.50;;;;;;;9.72;76.35;101319.69;105707;1260;60500;-76
2024/03/21 06:29:28;;;;;;;26.90;16.80;;;;;;;9.95;74.05;101321.77;105699;1259;73715;-75
2024/03/21 06:31:56;;;;;;;26.80;16.40;;;;;;;10.17;68.49;101322.48;105743;1259;62759;-75
2024/03/21 06:34:23;;;;;;;26.60;15.10;;;;;;;10.36;66.14;101323.20;105662;1258;72658;-74
2024/03/21 06:36:50;;;;;;;22.20;15.70;;;;;;;10.53;65.53;101321.16;105752;1261;60534;-75
2024/03/21 06:39:19;;;;;;;21.10;14.70;;;;;;;10.70;64.42;101322.25;105806;1260;60333;-74
2024/03/21 06:41:46;;;;;;;24.60;14.70;;;;;;;10.89;63.50;101327.10;105958;1256;73993;-74
2024/03/21 06:44:14;;;;;;;28.20;17.30;;;;;;;11.06;61.13;101323.27;106062;1256;63142;-75
2024/03/21 06:46:41;;;;;;;27.00;17.10;;;;;;;11.21;60.27;101327.23;105787;1256;72254;-75
2024/03/21 06:49:09;;;;;;;22.60;15.80;;;;;;;11.37;59.67;101324.13;106012;1257;62863;-75
2024/03/21 06:51:36;;;;;;;21.60;14.60;;;;;;;11.61;59.61;101323.04;105882;1256;60501;-74
2024/03/21 06:54:03;;;;;;;27.30;16.00;;;;;;;11.84;58.54;101323.39;106047;1256;73330;-73
2024/03/21 06:56:31;;;;;;;24.90;17.60;;;;;;;12.07;56.54;101319.89;107492;1250;63751;-75
2024/03/21 07:00:41;;;;;;;23.00;15.20;;;;;;;12.41;55.67;101316.91;104640;1292;599703;-77
2024/03/21 07:03:09;;;;;;;26.90;16.90;;;;;;;12.79;54.67;101319.66;104954;1269;59995;-75
2024/03/21 07:05:36;;;;;;;25.60;16.80;;;;;;;13.11;52.76;101318.67;105089;1263;60372;-75
2024/03/21 07:08:04;;;;;;;26.90;17.70;;;;;;;13.39;51.98;101317.73;105058;1265;72529;-74
2024/03/21 07:10:32;;;;;;;31.10;16.70;;;;;;;13.64;50.66;101315.84;104996;1267;65217;-76
2024/03/21 07:12:59;;;;;;;25.80;16.10;;;;;;;13.79;49.96;101315.30;104794;1266;207639;-75
2024/03/21 07:15:26;;;;;;;21.30;15.20;;;;;;;13.89;49.07;101319.91;105163;1264;59673;-76
2024/03/21 07:17:52;;;;;;;22.90;14.10;;;;;;;13.96;48.52;101315.83;105275;1266;59593;-76
2024/03/21 07:20:19;;;;;;;21.00;15.40;;;;;;;14.02;48.71;101312.08;105360;1263;73298;-77
2024/03/21 07:22:46;;;;;;;23.10;15.00;;;;;;;14.20;48.10;101318.14;105366;1260;63968;-76
2024/03/21 07:25:13;;;;;;;24.50;14.90;;;;;;;14.28;46.62;101314.46;106057;1256;71860;-76
2024/03/21 07:27:42;;;;;;;20.00;13.00;;;;;;;14.30;46.55;101314.15;106409;1251;60510;-75
2024/03/21 07:30:12;;;;;;;20.00;13.80;;;;;;;14.38;47.28;101305.40;106281;1254;60415;-74
2024/03/21 07:32:39;;;;;;;20.50;14.80;;;;;;;14.58;46.57;101317.52;106815;1253;71696;-73
2024/03/21 07:35:06;;;;;;;23.70;15.60;;;;;;;14.61;45.90;101313.04;106216;1255;63976;-75
2024/03/21 07:37:33;;;;;;;23.00;17.00;;;;;;;14.62;45.94;101314.92;106074;1254;71672;-75
2024/03/21 07:40:01;;;;;;;20.30;13.00;;;;;;;14.79;45.49;101321.55;105996;1255;60524;-74
2024/03/21 07:42:29;;;;;;;18.60;12.80;;;;;;;14.84;45.60;101315.40;106048;1257;60502;-75
2024/03/21 07:44:56;;;;;;;26.90;16.70;;;;;;;14.81;45.63;101317.91;105987;1250;75163;-77
2024/03/21 07:47:22;;;;;;;23.70;15.00;;;;;;;14.85;45.38;101325.02;106031;1254;63680;-77
2024/03/21 07:49:49;;;;;;;19.90;14.60;;;;;;;14.91;45.28;101324.11;106006;1253;72474;-75
2024/03/21 07:52:16;;;;;;;18.60;13.50;;;;;;;15.02;45.56;101322.83;105949;1250;60613;-76
2024/03/21 07:54:42;;;;;;;20.70;14.70;;;;;;;15.19;45.04;101325.70;105992;1253;61426;-75
2024/03/21 07:57:09;;;;;;;28.10;16.50;;;;;;;15.31;44.43;101324.92;106042;1253;73102;-75
2024/03/21 07:59:36;;;;;;;24.60;15.40;;;;;;;15.32;43.85;101326.08;105985;1253;63934;-75
2024/03/21 08:02:04;;;;;;;21.50;14.10;;;;;;;15.31;43.65;101331.23;106043;1255;72900;-75
2024/03/21 08:04:31;;;;;;;23.10;13.70;;;;;;;15.27;43.32;101324.69;105978;1254;60616;-76
2024/03/21 08:06:58;;;;;;;17.70;13.40;;;;;;;15.19;43.85;101325.77;105982;1251;61469;-75
2024/03/21 08:09:24;;;;;;;20.30;13.60;;;;;;;15.17;43.67;101323.25;106019;1254;73256;-76
2024/03/21 08:11:51;;;;;;;22.40;13.60;;;;;;;15.06;44.03;101317.99;106043;1256;63927;-77
2024/03/21 08:14:18;;;;;;;24.80;13.60;;;;;;;15.03;44.48;101314.81;106038;1256;71730;-74
2024/03/21 08:16:46;;;;;;;18.90;13.30;;;;;;;15.22;45.09;101323.23;105947;1253;61332;-76
2024/03/21 08:19:12;;;;;;;20.70;12.80;;;;;;;15.39;44.25;101323.29;105940;1255;61703;-77
2024/03/21 08:21:39;;;;;;;18.40;11.10;;;;;;;15.41;44.00;101321.09;105942;1254;72874;-75
2024/03/21 08:24:06;;;;;;;18.20;11.10;;;;;;;15.38;43.46;101323.95;105876;1257;62773;-74
2024/03/21 08:26:33;;;;;;;17.90;12.10;;;;;;;15.25;44.01;101322.86;105984;1256;73706;-75
2024/03/21 08:29:00;;;;;;;19.20;11.90;;;;;;;15.10;44.67;101320.55;105942;1251;60463;-78
2024/03/21 08:31:26;;;;;;;19.40;12.60;;;;;;;15.06;44.42;101322.05;105838;1251;60525;-77
2024/03/21 08:33:53;;;;;;;16.80;11.70;;;;;;;14.98;44.74;101315.91;105937;1254;71641;-76
2024/03/21 08:36:20;;;;;;;16.30;10.50;;;;;;;15.00;45.34;101318.56;105873;1255;64261;-74
2024/03/21 08:38:46;;;;;;;17.80;12.10;;;;;;;15.09;44.84;101314.47;105893;1252;72465;-75
2024/03/21 08:41:14;;;;;;;23.40;15.10;;;;;;;15.08;44.28;101316.62;106085;1253;60443;-75
2024/03/21 08:43:40;;;;;;;16.30;12.70;;;;;;;15.08;44.68;101313.43;106003;1253;60350;-74
2024/03/21 08:46:08;;;;;;;21.50;10.90;;;;;;;15.18;44.67;101315.73;105980;1257;71920;-75
2024/03/21 08:48:34;;;;;;;17.90;11.30;;;;;;;15.30;43.91;101316.17;106081;1253;63521;-74
2024/03/21 08:51:02;;;;;;;18.40;11.90;;;;;;;15.31;43.94;101312.52;105847;1253;71622;-74
2024/03/21 08:53:33;;;;;;;16.60;10.60;;;;;;;15.35;44.51;101314.45;106006;1259;60439;-75
2024/03/21 08:56:00;;;;;;;17.10;9.70;;;;;;;15.40;44.34;101308.83;106063;1253;60340;-74
2024/03/21 08:58:27;;;;;;;16.30;10.10;;;;;;;15.38;44.66;101308.03;105949;1254;73931;-75
2024/03/21 09:00:53;;;;;;;15.60;9.80;;;;;;;15.52;44.55;101313.09;106088;1254;64134;-77
2024/03/21 09:03:20;;;;;;;16.30;9.80;;;;;;;15.73;43.78;101313.92;106029;1253;73518;-75
2024/03/21 09:05:47;;;;;;;14.80;11.00;;;;;;;15.68;43.15;101311.39;106050;1252;60526;-76
2024/03/21 09:08:13;;;;;;;16.40;10.50;;;;;;;15.63;43.16;101315.13;105998;1254;60409;-77
2024/03/21 09:10:40;;;;;;;15.00;9.90;;;;;;;15.70;43.69;101315.48;106087;1254;73521;-75
2024/03/21 09:13:07;;;;;;;17.30;10.20;;;;;;;15.81;43.06;101309.54;106012;1254;65036;-75
2024/03/21 09:15:34;;;;;;;16.90;10.20;;;;;;;15.82;43.19;101308.02;106044;1263;72975;-76
2024/03/21 09:18:00;;;;;;;18.60;10.90;;;;;;;15.88;43.36;101315.16;106090;1251;60517;-76
2024/03/21 09:20:28;;;;;;;17.10;11.30;;;;;;;15.91;43.21;101308.55;106047;1256;60546;-75
2024/03/21 09:22:54;;;;;;;15.70;10.80;;;;;;;16.08;42.45;101314.47;106010;1254;74856;-76
2024/03/21 09:25:21;;;;;;;14.80;9.70;;;;;;;16.25;42.04;101314.80;106042;1252;64726;-75
2024/03/21 09:27:48;;;;;;;23.20;13.80;;;;;;;16.40;41.87;101317.21;106180;1251;72612;-75
2024/03/21 09:30:17;;;;;;;17.90;11.60;;;;;;;16.63;41.50;101313.40;106038;1254;60513;-74
2024/03/21 09:32:45;;;;;;;15.40;8.40;;;;;;;16.86;41.26;101309.61;106105;1251;60625;-77
2024/03/21 09:35:12;;;;;;;12.90;8.60;;;;;;;17.04;40.64;101310.75;106064;1253;74017;-77
2024/03/21 09:37:38;;;;;;;16.60;10.00;;;;;;;17.36;40.58;101309.69;106059;1253;63001;-76
2024/03/21 09:40:10;;;;;;;11.50;8.80;;;;;;;17.70;39.49;101303.14;106001;1253;72614;-76
2024/03/21 09:42:38;;;;;;;12.00;8.30;;;;;;;17.97;40.10;101300.52;105920;1251;60626;-78
2024/03/21 09:45:11;;;;;;;14.10;8.60;;;;;;;18.24;38.92;101306.80;106064;1251;60484;-77
2024/03/21 09:47:37;;;;;;;13.30;9.80;;;;;;;18.36;38.45;101299.50;106086;1253;73845;-75
2024/03/21 09:50:06;;;;;;;11.00;7.80;;;;;;;18.43;37.95;101305.60;106070;1257;62401;-75
2024/03/21 09:52:33;;;;;;;8.30;7.20;;;;;;;18.43;37.19;101306.33;106199;1251;72427;-75
2024/03/21 09:55:00;;;;;;;12.70;8.00;;;;;;;18.36;37.59;101299.26;106419;1249;60598;-74
2024/03/21 09:57:28;;;;;;;11.00;9.20;;;;;;;18.38;38.37;101291.33;106424;1251;60895;-73
2024/03/21 09:59:54;;;;;;;17.60;9.40;;;;;;;18.51;38.11;101298.89;106507;1254;71703;-76
2024/03/21 10:02:21;;;;;;;9.20;7.00;;;;;;;18.65;37.13;101304.20;106550;1253;65094;-77
2024/03/21 10:04:48;;;;;;;8.60;7.60;;;;;;;18.64;36.73;101301.34;106151;1251;73752;-76
2024/03/21 10:07:16;;;;;;;11.60;8.00;;;;;;;18.62;37.16;101296.73;106051;1255;60444;-77
2024/03/21 10:09:59;;;;;;;10.30;6.80;;;;;;;18.65;37.57;101297.95;106110;1254;60354;-75
2024/03/21 10:12:26;;;;;;;9.20;7.50;;;;;;;18.61;37.43;101299.36;106079;1253;72030;-75
2024/03/21 10:14:55;;;;;;;11.40;7.40;;;;;;;18.61;37.89;101297.17;106062;1254;63949;-76
2024/03/21 10:17:23;;;;;;;9.90;7.80;;;;;;;18.62;37.93;101300.13;106000;1254;71654;-76
2024/03/21 10:19:50;;;;;;;9.70;8.00;;;;;;;18.49;37.53;101295.22;106132;1253;60403;-75
2024/03/21 10:22:22;;;;;;;9.20;8.30;;;;;;;18.11;38.06;101294.04;105999;1251;60510;-75
2024/03/21 10:24:55;;;;;;;10.20;7.40;;;;;;;17.74;38.75;101291.85;106063;1253;73797;-76
2024/03/21 10:27:22;;;;;;;10.40;8.20;;;;;;;17.52;39.28;101288.78;106041;1253;63223;-74
2024/03/21 10:29:50;;;;;;;12.60;8.30;;;;;;;17.46;39.49;101287.19;106096;1254;73811;-73
2024/03/21 10:32:18;;;;;;;10.70;7.70;;;;;;;17.22;39.58;101289.02;105989;1251;60402;-77
2024/03/21 10:34:48;;;;;;;9.60;7.90;;;;;;;16.93;40.14;101292.17;106185;1254;60502;-75
2024/03/21 10:37:20;;;;;;;9.10;8.00;;;;;;;16.63;40.62;101288.20;106096;1251;74099;-76
2024/03/21 10:39:47;;;;;;;11.60;7.90;;;;;;;16.38;41.23;101283.69;106121;1253;65086;-77
2024/03/21 10:42:27;;;;;;;12.10;9.40;;;;;;;16.26;41.94;101280.84;106124;1254;73778;-77
2024/03/21 10:45:04;;;;;;;11.20;8.60;;;;;;;16.28;42.42;101280.73;105893;1254;60531;-75
2024/03/21 10:47:33;;;;;;;11.20;9.20;;;;;;;16.33;42.31;101279.42;106047;1251;61521;-76
2024/03/21 10:50:00;;;;;;;12.30;9.10;;;;;;;16.37;42.62;101280.77;106003;1253;74887;-77
2024/03/21 10:52:26;;;;;;;12.30;8.80;;;;;;;16.39;42.49;101283.77;106068;1253;63195;-75
2024/03/21 10:54:54;;;;;;;14.10;8.60;;;;;;;16.28;41.29;101284.96;106220;1253;70549;-75
2024/03/21 10:57:24;;;;;;;9.50;7.50;;;;;;;16.14;41.07;101280.48;106162;1253;61493;-76
2024/03/21 10:59:58;;;;;;;12.50;9.70;;;;;;;15.98;41.43;101278.33;105946;1254;60638;-76
2024/03/21 11:02:29;;;;;;;9.70;8.40;;;;;;;15.91;42.29;101278.94;106113;1251;72810;-77
2024/03/21 11:04:55;;;;;;;12.40;9.00;;;;;;;15.92;42.26;101278.37;106064;1253;61783;-75
2024/03/21 11:07:22;;;;;;;10.90;9.00;;;;;;;15.82;42.11;101278.07;106017;1253;70408;-75
2024/03/21 11:09:49;;;;;;;9.90;8.60;;;;;;;15.61;42.34;101276.71;105994;1253;61346;-75
2024/03/21 11:12:16;;;;;;;12.50;8.80;;;;;;;15.37;42.83;101275.52;106017;1253;61425;-76
2024/03/21 11:14:46;;;;;;;11.50;9.10;;;;;;;15.16;42.99;101274.52;106059;1251;74725;-74
2024/03/21 11:17:13;;;;;;;12.40;9.20;;;;;;;15.09;43.84;101263.35;105982;1254;63719;-76
2024/03/21 11:19:40;;;;;;;13.20;9.80;;;;;;;15.12;44.75;101260.52;106077;1253;72321;-75
2024/03/21 11:22:11;;;;;;;12.10;9.40;;;;;;;15.30;44.35;101265.08;106154;1254;62798;-76